createdAt,value
2022-11-17T00:01:46.928Z,11.90
2022-11-17T00:04:17.142Z,11.90
2022-11-17T00:06:46.268Z,11.90
2022-11-17T00:09:17.779Z,11.90
2022-11-17T00:12:06.501Z,11.80
2022-11-17T00:14:36.865Z,11.90
2022-11-17T00:17:07.418Z,11.80
2022-11-17T00:19:54.851Z,11.80
2022-11-17T00:22:23.238Z,11.90
2022-11-17T00:24:51.923Z,11.80
2022-11-17T00:27:20.342Z,11.80
2022-11-17T00:29:49.118Z,11.80
2022-11-17T00:32:44.542Z,11.80
2022-11-17T00:35:14.256Z,11.80
2022-11-17T00:38:04.436Z,11.80
2022-11-17T00:40:32.774Z,11.90
2022-11-17T00:43:01.445Z,11.90
2022-11-17T00:45:29.783Z,11.90
2022-11-17T00:47:58.015Z,11.90
2022-11-17T00:50:27.829Z,11.90
2022-11-17T00:52:56.420Z,11.90
2022-11-17T00:55:24.993Z,11.90
2022-11-17T00:57:53.497Z,11.90
2022-11-17T01:00:22.548Z,11.90
2022-11-17T01:02:51.400Z,11.90
2022-11-17T01:05:21.614Z,11.90
2022-11-17T01:07:51.483Z,12.00
2022-11-17T01:10:19.724Z,11.90
2022-11-17T01:12:48.554Z,11.90
2022-11-17T01:15:17.373Z,12.00
2022-11-17T01:17:45.782Z,12.00
2022-11-17T01:20:14.244Z,12.00
2022-11-17T01:22:42.645Z,11.90
2022-11-17T01:25:12.511Z,11.90
2022-11-17T01:27:40.739Z,11.90
2022-11-17T01:30:10.391Z,12.00
2022-11-17T01:32:38.576Z,12.00
2022-11-17T01:35:08.006Z,12.00
2022-11-17T01:37:36.505Z,12.10
2022-11-17T01:40:05.792Z,12.10
2022-11-17T01:42:36.380Z,12.10
2022-11-17T01:45:08.022Z,12.10
2022-11-17T01:47:51.584Z,12.20
2022-11-17T01:50:33.263Z,12.10
2022-11-17T01:53:03.988Z,12.10
2022-11-17T01:55:37.240Z,12.00
2022-11-17T01:58:12.917Z,12.00
2022-11-17T02:00:41.620Z,12.00
2022-11-17T02:03:11.436Z,12.10
2022-11-17T02:05:47.700Z,12.10
2022-11-17T02:08:17.083Z,12.10
2022-11-17T02:10:51.610Z,12.10
2022-11-17T02:13:22.486Z,12.10
2022-11-17T02:15:53.892Z,12.00
2022-11-17T02:18:22.873Z,12.00
2022-11-17T02:21:22.528Z,12.00
2022-11-17T02:24:30.100Z,12.00
2022-11-17T02:27:37.892Z,12.00
2022-11-17T02:30:15.588Z,12.00
2022-11-17T02:32:54.213Z,12.00
2022-11-17T02:35:28.112Z,11.90
2022-11-17T02:38:08.830Z,11.90
2022-11-17T02:40:43.994Z,11.80
2022-11-17T02:43:38.264Z,11.80
2022-11-17T02:46:13.034Z,11.80
2022-11-17T02:48:47.547Z,11.90
2022-11-17T02:51:19.776Z,11.90
2022-11-17T02:53:49.150Z,11.80
2022-11-17T02:56:17.283Z,11.90
2022-11-17T02:58:46.435Z,11.90
2022-11-17T03:01:39.294Z,11.90
2022-11-17T03:04:31.004Z,11.90
2022-11-17T03:07:17.247Z,11.80
2022-11-17T03:09:51.074Z,11.70
2022-11-17T03:16:17.418Z,11.80
2022-11-17T03:18:57.301Z,11.80
2022-11-17T03:21:30.062Z,11.80
2022-11-17T03:24:04.381Z,11.80
2022-11-17T03:26:35.994Z,11.80
2022-11-17T03:29:07.763Z,11.80
2022-11-17T03:31:38.620Z,11.80
2022-11-17T03:34:13.469Z,11.80
2022-11-17T03:36:46.475Z,11.80
2022-11-17T03:39:21.377Z,11.80
2022-11-17T03:41:52.506Z,11.90
2022-11-17T03:44:23.945Z,11.90
2022-11-17T03:46:56.804Z,11.80
2022-11-17T03:49:36.172Z,11.80
2022-11-17T03:52:05.036Z,11.80
2022-11-17T03:54:34.939Z,11.80
2022-11-17T03:57:08.749Z,11.80
2022-11-17T03:59:43.866Z,11.90
2022-11-17T04:02:16.206Z,11.90
2022-11-17T04:05:02.389Z,11.90
2022-11-17T04:07:30.504Z,11.90
2022-11-17T04:09:58.902Z,11.90
2022-11-17T04:12:44.834Z,11.90
2022-11-17T04:15:27.621Z,11.90
2022-11-17T04:17:55.981Z,11.90
2022-11-17T04:20:26.007Z,11.90
2022-11-17T04:23:08.104Z,12.00
2022-11-17T04:25:55.098Z,12.00
2022-11-17T04:28:39.785Z,12.00
2022-11-17T04:31:11.203Z,12.00
2022-11-17T04:33:41.455Z,11.90
2022-11-17T04:36:12.334Z,11.90
2022-11-17T04:38:42.909Z,11.90
2022-11-17T04:41:29.609Z,11.90
2022-11-17T04:43:58.215Z,11.90
2022-11-17T04:46:27.614Z,12.00
2022-11-17T04:48:56.490Z,11.90
2022-11-17T04:51:26.420Z,11.80
2022-11-17T04:53:55.288Z,11.90
2022-11-17T04:56:24.531Z,11.80
2022-11-17T04:58:52.877Z,11.80
2022-11-17T05:01:24.571Z,11.80
2022-11-17T05:03:54.387Z,11.80
2022-11-17T05:06:26.696Z,11.80
2022-11-17T05:08:56.634Z,11.80
2022-11-17T05:11:44.188Z,11.80
2022-11-17T05:14:13.595Z,11.80
2022-11-17T05:17:07.369Z,11.80
2022-11-17T05:19:39.824Z,11.80
2022-11-17T05:22:25.279Z,11.80
2022-11-17T05:24:53.500Z,11.70
2022-11-17T05:27:22.170Z,11.70
2022-11-17T05:29:50.725Z,11.70
2022-11-17T05:32:19.022Z,11.70
2022-11-17T05:34:47.188Z,11.70
2022-11-17T05:37:16.786Z,11.70
2022-11-17T05:39:47.353Z,11.60
2022-11-17T05:42:15.508Z,11.60
2022-11-17T05:44:43.625Z,11.60
2022-11-17T05:47:11.782Z,11.50
2022-11-17T05:49:45.531Z,11.60
2022-11-17T05:52:14.267Z,11.50
2022-11-17T05:54:43.828Z,11.50
2022-11-17T05:57:15.922Z,11.50
2022-11-17T05:59:47.139Z,11.50
2022-11-17T06:02:20.156Z,11.60
2022-11-17T06:04:50.691Z,11.60
2022-11-17T06:07:20.601Z,11.60
2022-11-17T06:09:51.193Z,11.70
2022-11-17T06:12:19.387Z,11.60
2022-11-17T06:14:47.937Z,11.60
2022-11-17T06:17:22.690Z,11.60
2022-11-17T06:19:55.208Z,11.60
2022-11-17T06:22:24.166Z,11.60
2022-11-17T06:24:54.367Z,11.60
2022-11-17T06:27:23.134Z,11.60
2022-11-17T06:29:51.545Z,11.70
2022-11-17T06:32:21.328Z,11.60
2022-11-17T06:34:55.581Z,11.70
2022-11-17T06:37:24.851Z,11.70
2022-11-17T06:39:54.816Z,11.60
2022-11-17T06:42:43.940Z,11.50
2022-11-17T06:45:13.019Z,11.50
2022-11-17T06:47:41.551Z,11.40
2022-11-17T06:50:10.844Z,11.40
2022-11-17T06:52:39.407Z,11.40
2022-11-17T06:55:10.157Z,11.30
2022-11-17T06:57:38.965Z,11.20
2022-11-17T07:00:08.308Z,11.10
2022-11-17T07:02:37.245Z,11.00
2022-11-17T07:05:07.497Z,11.00
2022-11-17T07:07:36.048Z,11.00
2022-11-17T07:10:04.990Z,11.00
2022-11-17T07:12:34.889Z,10.90
2022-11-17T07:15:03.297Z,11.00
2022-11-17T07:17:31.441Z,10.90
2022-11-17T07:19:59.640Z,11.00
2022-11-17T07:22:28.144Z,11.00
2022-11-17T07:24:56.329Z,10.90
2022-11-17T07:27:25.701Z,10.90
2022-11-17T07:29:55.547Z,10.90
2022-11-17T07:32:23.742Z,11.00
2022-11-17T07:34:52.203Z,11.00
2022-11-17T07:37:20.712Z,11.00
2022-11-17T07:39:48.880Z,11.10
2022-11-17T07:42:17.262Z,11.10
2022-11-17T07:44:45.915Z,11.10
2022-11-17T07:47:16.020Z,11.20
2022-11-17T07:49:44.136Z,11.10
2022-11-17T07:52:12.333Z,11.10
2022-11-17T07:54:41.873Z,11.10
2022-11-17T07:57:10.145Z,11.10
2022-11-17T07:59:38.476Z,11.10
2022-11-17T08:02:06.638Z,11.10
2022-11-17T08:04:37.917Z,11.20
2022-11-17T08:07:06.098Z,11.20
2022-11-17T08:09:34.484Z,11.20
2022-11-17T08:12:02.747Z,11.30
2022-11-17T08:14:31.136Z,11.30
2022-11-17T08:16:59.292Z,11.40
2022-11-17T08:19:28.772Z,11.40
2022-11-17T08:21:58.364Z,11.40
2022-11-17T08:24:28.430Z,11.50
2022-11-17T08:26:56.865Z,11.50
2022-11-17T08:29:24.961Z,11.60
2022-11-17T08:31:53.451Z,11.60
2022-11-17T08:34:21.553Z,11.60
2022-11-17T08:36:52.512Z,11.60
2022-11-17T08:39:23.507Z,11.60
2022-11-17T08:41:52.771Z,11.60
2022-11-17T08:44:21.353Z,11.60
2022-11-17T08:46:50.929Z,11.60
2022-11-17T08:49:19.140Z,11.60
2022-11-17T08:51:47.349Z,11.50
2022-11-17T08:54:16.228Z,11.60
2022-11-17T08:56:46.531Z,11.60
2022-11-17T08:59:15.322Z,11.80
2022-11-17T09:01:44.171Z,12.90
2022-11-17T09:04:12.488Z,14.40
2022-11-17T09:06:40.707Z,15.90
2022-11-17T09:09:09.339Z,17.30
2022-11-17T09:11:37.704Z,18.50
2022-11-17T09:14:08.134Z,18.90
2022-11-17T09:16:36.857Z,18.50
2022-11-17T09:19:05.391Z,18.40
2022-11-17T09:21:33.919Z,17.30
2022-11-17T09:24:02.168Z,16.30
2022-11-17T09:26:30.385Z,15.10
2022-11-17T09:29:02.928Z,14.30
2022-11-17T09:31:33.844Z,14.00
2022-11-17T09:34:05.251Z,14.10
2022-11-17T09:36:34.209Z,14.40
2022-11-17T09:39:02.361Z,14.30
2022-11-17T09:41:37.102Z,13.90
2022-11-17T09:44:15.909Z,13.70
2022-11-17T09:47:02.787Z,14.10
2022-11-17T09:49:45.897Z,14.50
2022-11-17T09:52:20.305Z,14.70
2022-11-17T09:54:54.723Z,14.70
2022-11-17T09:57:28.985Z,14.10
2022-11-17T10:00:14.822Z,13.70
2022-11-17T10:02:47.699Z,13.30
2022-11-17T10:05:20.869Z,13.20
2022-11-17T10:07:53.344Z,13.10
2022-11-17T10:10:30.875Z,13.00
2022-11-17T10:12:59.838Z,13.00
2022-11-17T10:15:31.251Z,12.90
2022-11-17T10:18:00.894Z,12.70
2022-11-17T10:20:29.199Z,12.50
2022-11-17T10:22:58.074Z,12.50
2022-11-17T10:25:38.853Z,12.50
2022-11-17T10:28:25.941Z,12.80
2022-11-17T10:30:56.415Z,13.10
2022-11-17T10:33:38.325Z,13.80
2022-11-17T10:36:14.303Z,14.10
2022-11-17T10:38:49.991Z,14.20
2022-11-17T10:41:21.153Z,14.70
2022-11-17T10:44:01.048Z,15.00
2022-11-17T10:46:41.572Z,15.10
2022-11-17T10:49:26.917Z,14.90
2022-11-17T10:52:07.190Z,14.20
2022-11-17T10:54:36.033Z,13.80
2022-11-17T10:57:09.199Z,13.50
2022-11-17T10:59:44.768Z,13.30
2022-11-17T11:02:29.826Z,13.00
2022-11-17T11:05:18.759Z,12.90
2022-11-17T11:07:47.240Z,12.80
2022-11-17T11:10:33.738Z,12.90
2022-11-17T11:13:12.233Z,12.90
2022-11-17T11:15:41.012Z,12.90
2022-11-17T11:18:14.893Z,12.80
2022-11-17T11:20:51.748Z,12.80
2022-11-17T11:23:33.730Z,12.70
2022-11-17T11:26:15.350Z,12.80
2022-11-17T11:29:00.251Z,12.80
2022-11-17T11:31:40.321Z,12.80
2022-11-17T11:34:23.262Z,12.80
2022-11-17T11:36:56.748Z,12.80
2022-11-17T11:39:37.501Z,12.90
2022-11-17T11:42:24.530Z,12.90
2022-11-17T11:45:14.633Z,12.90
2022-11-17T11:48:12.373Z,12.90
2022-11-17T11:50:53.420Z,12.90
2022-11-17T11:53:29.925Z,13.00
2022-11-17T11:56:08.746Z,12.90
2022-11-17T11:58:45.454Z,13.00
2022-11-17T12:01:17.225Z,13.00
2022-11-17T12:03:56.092Z,13.00
2022-11-17T12:06:44.035Z,12.90
2022-11-17T12:09:46.297Z,12.90
2022-11-17T12:12:19.160Z,12.90
2022-11-17T12:15:12.979Z,13.00
2022-11-17T12:17:59.235Z,13.10
2022-11-17T12:20:57.604Z,13.00
2022-11-17T12:23:58.331Z,13.00
2022-11-17T12:26:30.694Z,13.00
2022-11-17T12:29:32.352Z,13.00
2022-11-17T12:32:03.266Z,13.00
2022-11-17T12:34:37.154Z,13.10
2022-11-17T12:37:22.127Z,13.20
2022-11-17T12:39:59.618Z,13.20
2022-11-17T12:42:30.572Z,13.30
2022-11-17T12:45:08.305Z,13.40
2022-11-17T12:47:38.515Z,13.40
2022-11-17T12:50:37.445Z,13.30
2022-11-17T12:53:38.330Z,13.40
2022-11-17T12:56:28.837Z,13.60
2022-11-17T12:59:15.650Z,13.60
2022-11-17T13:01:51.036Z,13.50
2022-11-17T13:04:22.940Z,13.40
2022-11-17T13:07:02.593Z,13.60
2022-11-17T13:09:33.442Z,13.70
2022-11-17T13:12:04.230Z,13.80
2022-11-17T13:14:34.785Z,13.80
2022-11-17T13:17:05.338Z,14.10
2022-11-17T13:19:38.774Z,14.60
2022-11-17T13:22:15.191Z,14.70
2022-11-17T13:24:45.346Z,14.90
2022-11-17T13:27:22.172Z,15.50
2022-11-17T13:29:52.585Z,15.60
2022-11-17T13:32:23.979Z,15.20
2022-11-17T13:34:56.487Z,14.80
2022-11-17T13:37:28.829Z,14.40
2022-11-17T13:40:02.017Z,14.00
2022-11-17T13:42:34.295Z,13.80
2022-11-17T13:45:07.192Z,13.80
2022-11-17T13:47:46.822Z,13.70
2022-11-17T13:50:40.496Z,13.60
2022-11-17T13:53:26.437Z,13.50
2022-11-17T13:55:54.865Z,13.50
2022-11-17T13:58:38.444Z,13.40
2022-11-17T14:01:12.428Z,13.40
2022-11-17T14:03:44.605Z,13.40
2022-11-17T14:06:14.778Z,13.40
2022-11-17T14:08:44.850Z,13.50
2022-11-17T14:11:21.558Z,13.50
2022-11-17T14:13:52.391Z,13.50
2022-11-17T14:16:25.708Z,13.40
2022-11-17T14:19:03.196Z,13.20
2022-11-17T14:21:34.789Z,13.20
2022-11-17T14:24:07.600Z,13.10
2022-11-17T14:26:36.135Z,13.10
2022-11-17T14:29:05.217Z,13.10
2022-11-17T14:31:35.049Z,13.00
2022-11-17T14:34:03.942Z,13.00
2022-11-17T14:36:33.872Z,13.10
2022-11-17T14:39:03.330Z,13.20
2022-11-17T14:41:31.807Z,13.30
2022-11-17T14:44:00.696Z,13.20
2022-11-17T14:46:28.924Z,13.30
2022-11-17T14:48:58.953Z,13.30
2022-11-17T14:51:27.192Z,13.30
2022-11-17T14:53:55.477Z,13.30
2022-11-17T14:56:25.108Z,13.20
2022-11-17T14:58:58.572Z,13.20
2022-11-17T15:01:56.250Z,13.20
2022-11-17T15:04:50.137Z,13.20
2022-11-17T15:07:19.643Z,13.10
2022-11-17T15:09:47.976Z,13.00
2022-11-17T15:12:16.507Z,12.90
2022-11-17T15:14:44.712Z,12.90
2022-11-17T15:17:14.765Z,12.80
2022-11-17T15:19:45.326Z,12.80
2022-11-17T15:22:14.003Z,12.80
2022-11-17T15:24:42.551Z,12.70
2022-11-17T15:27:11.051Z,12.60
2022-11-17T15:29:39.659Z,12.60
2022-11-17T15:32:08.933Z,12.50
2022-11-17T15:34:37.169Z,12.50
2022-11-17T15:37:06.882Z,12.50
2022-11-17T15:39:37.075Z,12.50
2022-11-17T15:42:05.440Z,12.40
2022-11-17T15:44:33.605Z,12.40
2022-11-17T15:47:01.911Z,12.40
2022-11-17T15:49:30.457Z,12.40
2022-11-17T15:51:58.751Z,12.30
2022-11-17T15:54:28.419Z,12.30
2022-11-17T15:56:56.599Z,12.30
2022-11-17T15:59:24.872Z,12.30
2022-11-17T16:01:53.447Z,12.30
2022-11-17T16:04:21.663Z,12.30
2022-11-17T16:06:50.386Z,12.20
2022-11-17T16:09:19.243Z,12.20
2022-11-17T16:11:49.037Z,12.30
2022-11-17T16:14:17.409Z,12.20
2022-11-17T16:16:48.017Z,12.20
2022-11-17T16:19:16.365Z,12.20
2022-11-17T16:21:44.733Z,12.20
2022-11-17T16:24:13.403Z,12.20
2022-11-17T16:26:41.569Z,12.30
2022-11-17T16:29:12.059Z,12.30
2022-11-17T16:31:40.587Z,12.20
2022-11-17T16:34:13.733Z,12.20
2022-11-17T16:36:44.666Z,12.10
2022-11-17T16:39:15.385Z,12.20
2022-11-17T16:41:45.747Z,12.20
2022-11-17T16:44:17.489Z,12.20
2022-11-17T16:46:47.912Z,12.20
2022-11-17T16:49:18.560Z,12.20
2022-11-17T16:51:49.408Z,12.20
2022-11-17T16:54:18.691Z,12.20
2022-11-17T16:56:47.062Z,12.10
2022-11-17T16:59:17.264Z,12.10
2022-11-17T17:01:45.667Z,12.00
2022-11-17T17:04:14.375Z,12.00
2022-11-17T17:06:45.234Z,12.00
2022-11-17T17:09:15.906Z,11.90
2022-11-17T17:11:44.539Z,11.80
2022-11-17T17:14:14.923Z,11.80
2022-11-17T17:16:44.541Z,11.80
2022-11-17T17:19:14.967Z,11.80
2022-11-17T17:21:45.585Z,11.80
2022-11-17T17:24:14.213Z,11.80
2022-11-17T17:26:42.858Z,11.70
2022-11-17T17:29:13.318Z,11.70
2022-11-17T17:31:45.600Z,11.70
2022-11-17T17:34:14.759Z,11.70
2022-11-17T17:36:45.969Z,11.70
2022-11-17T17:39:16.782Z,11.70
2022-11-17T17:41:48.152Z,11.70
2022-11-17T17:44:18.164Z,11.80
2022-11-17T17:46:49.465Z,11.70
2022-11-17T17:49:19.225Z,11.70
2022-11-17T17:51:47.755Z,11.70
2022-11-17T17:54:18.073Z,11.70
2022-11-17T17:56:48.314Z,11.60
2022-11-17T17:59:17.003Z,11.60
2022-11-17T18:01:47.774Z,11.60
2022-11-17T18:04:17.915Z,11.60
2022-11-17T18:06:48.281Z,11.50
2022-11-17T18:09:19.798Z,11.50
2022-11-17T18:11:50.319Z,11.50
2022-11-17T18:14:24.730Z,11.50
2022-11-17T18:16:54.005Z,11.50
2022-11-17T18:19:37.518Z,11.50
2022-11-17T18:22:18.988Z,11.50
2022-11-17T18:24:47.553Z,11.50
2022-11-17T18:27:16.441Z,11.50
2022-11-17T18:29:47.220Z,11.50
2022-11-17T18:32:15.765Z,11.50
2022-11-17T18:34:45.591Z,11.50
2022-11-17T18:37:14.415Z,11.60
2022-11-17T18:39:42.864Z,11.50
2022-11-17T18:42:11.665Z,11.60
2022-11-17T18:44:40.027Z,11.60
2022-11-17T18:47:08.439Z,11.50
2022-11-17T18:49:36.951Z,11.50
2022-11-17T18:52:07.825Z,11.50
2022-11-17T18:54:36.103Z,11.50
2022-11-17T18:57:04.368Z,11.50
2022-11-17T18:59:33.028Z,11.50
2022-11-17T19:02:01.264Z,11.40
2022-11-17T19:04:29.653Z,11.40
2022-11-17T19:06:57.895Z,11.40
2022-11-17T19:09:27.790Z,11.30
2022-11-17T19:11:55.995Z,11.40
2022-11-17T19:14:24.569Z,11.30
2022-11-17T19:16:52.873Z,11.30
2022-11-17T19:19:21.081Z,11.30
2022-11-17T19:21:49.675Z,11.30
2022-11-17T19:24:18.290Z,11.30
2022-11-17T19:26:48.377Z,11.30
2022-11-17T19:29:21.073Z,11.30
2022-11-17T19:31:49.678Z,11.30
2022-11-17T19:34:18.244Z,11.20
2022-11-17T19:36:47.143Z,11.20
2022-11-17T19:39:17.056Z,11.10
2022-11-17T19:41:47.792Z,11.10
2022-11-17T19:44:18.165Z,11.10
2022-11-17T19:46:46.472Z,11.10
2022-11-17T19:49:14.920Z,11.10
2022-11-17T19:51:43.712Z,11.00
2022-11-17T19:54:14.018Z,11.00
2022-11-17T19:56:42.373Z,11.00
2022-11-17T19:59:15.695Z,11.00
2022-11-17T20:01:47.017Z,11.00
2022-11-17T20:04:15.461Z,11.00
2022-11-17T20:06:45.003Z,11.10
2022-11-17T20:09:15.354Z,11.00
2022-11-17T20:11:44.111Z,11.00
2022-11-17T20:14:14.552Z,11.00
2022-11-17T20:16:42.941Z,11.00
2022-11-17T20:19:13.913Z,11.00
2022-11-17T20:21:42.740Z,10.90
2022-11-17T20:24:11.192Z,11.00
2022-11-17T20:26:41.070Z,11.00
2022-11-17T20:29:09.999Z,10.90
2022-11-17T20:31:38.622Z,10.90
2022-11-17T20:34:07.029Z,11.00
2022-11-17T20:36:37.046Z,10.90
2022-11-17T20:39:08.087Z,10.90
2022-11-17T20:41:36.654Z,11.00
2022-11-17T20:44:05.292Z,10.90
2022-11-17T20:46:33.769Z,10.90
2022-11-17T20:49:02.118Z,10.90
2022-11-17T20:51:30.410Z,10.90
2022-11-17T20:54:00.014Z,10.80
2022-11-17T20:56:29.723Z,10.80
2022-11-17T20:58:57.915Z,10.80
2022-11-17T21:01:26.248Z,10.80
2022-11-17T21:03:54.730Z,10.80
2022-11-17T21:06:24.115Z,10.80
2022-11-17T21:08:52.761Z,10.90
2022-11-17T21:11:43.593Z,10.90
2022-11-17T21:14:13.651Z,10.90
2022-11-17T21:16:45.538Z,10.90
2022-11-17T21:19:14.618Z,10.80
2022-11-17T21:21:44.057Z,10.90
2022-11-17T21:24:12.818Z,10.90
2022-11-17T21:26:42.609Z,10.90
2022-11-17T21:29:11.179Z,10.90
2022-11-17T21:31:40.339Z,10.90
2022-11-17T21:34:12.852Z,10.90
2022-11-17T21:36:41.338Z,10.80
2022-11-17T21:39:09.511Z,10.90
2022-11-17T21:41:38.529Z,10.90
2022-11-17T21:44:08.301Z,10.80
2022-11-17T21:46:36.705Z,10.90
2022-11-17T21:49:05.060Z,10.90
2022-11-17T21:51:34.713Z,10.90
2022-11-17T21:54:05.157Z,10.90
2022-11-17T21:56:33.423Z,11.00
2022-11-17T21:59:08.610Z,11.10
2022-11-17T22:01:36.925Z,11.00
2022-11-17T22:04:05.493Z,11.10
2022-11-17T22:06:34.070Z,11.10
2022-11-17T22:09:02.330Z,11.10
2022-11-17T22:11:39.131Z,11.20
2022-11-17T22:14:10.853Z,11.20
2022-11-17T22:16:40.613Z,11.20
2022-11-17T22:19:10.429Z,11.20
2022-11-17T22:21:39.599Z,11.20
2022-11-17T22:24:10.413Z,11.30
2022-11-17T22:26:41.006Z,11.20
2022-11-17T22:29:13.464Z,11.30
2022-11-17T22:31:41.863Z,11.30
2022-11-17T22:34:10.039Z,11.30
2022-11-17T22:36:38.290Z,11.30
2022-11-17T22:39:06.823Z,11.30
2022-11-17T22:41:36.875Z,11.30
2022-11-17T22:44:06.372Z,11.40
2022-11-17T22:46:38.814Z,11.40
2022-11-17T22:49:07.023Z,11.40
2022-11-17T22:51:55.031Z,11.40
2022-11-17T22:54:23.580Z,11.40
2022-11-17T22:56:52.429Z,11.50
2022-11-17T22:59:23.714Z,11.40
2022-11-17T23:01:53.366Z,11.40
2022-11-17T23:04:23.212Z,11.40
2022-11-17T23:06:51.625Z,11.40
2022-11-17T23:09:20.212Z,11.40
2022-11-17T23:11:49.348Z,11.40
2022-11-17T23:14:17.935Z,11.50
2022-11-17T23:16:46.088Z,11.50
2022-11-17T23:19:16.354Z,11.50
2022-11-17T23:21:46.014Z,11.50
2022-11-17T23:24:14.791Z,11.50
2022-11-17T23:26:43.936Z,11.50
2022-11-17T23:29:12.243Z,11.40
2022-11-17T23:31:40.347Z,11.40
2022-11-17T23:34:10.716Z,11.40
2022-11-17T23:36:40.684Z,11.40
2022-11-17T23:39:08.987Z,11.30
2022-11-17T23:41:37.119Z,11.20
2022-11-17T23:44:05.989Z,11.20
2022-11-17T23:46:36.266Z,11.30
2022-11-17T23:49:04.691Z,11.30
2022-11-17T23:51:33.132Z,11.30
2022-11-17T23:54:03.868Z,11.30
2022-11-17T23:56:33.678Z,11.30
2022-11-17T23:59:02.006Z,11.30
